createdAt,value
2018-12-27T00:01:29.049Z,71.65
2018-12-27T00:17:02.032Z,69.93
2018-12-27T00:32:35.116Z,70.07
2018-12-27T00:48:08.169Z,70.07
2018-12-27T01:03:41.829Z,69.79
2018-12-27T01:19:15.103Z,67.83
2018-12-27T01:34:48.471Z,68.60
2018-12-27T01:50:21.199Z,68.82
2018-12-27T02:05:54.529Z,69.46
2018-12-27T02:21:27.964Z,70.13
2018-12-27T02:37:01.015Z,70.99
2018-12-27T02:52:34.086Z,71.01
2018-12-27T03:08:07.185Z,71.12
2018-12-27T03:23:40.267Z,71.11
2018-12-27T03:39:13.694Z,71.94
2018-12-27T03:54:46.663Z,72.73
2018-12-27T04:10:19.404Z,73.80
2018-12-27T04:25:52.900Z,74.42
2018-12-27T04:41:25.956Z,75.66
2018-12-27T04:56:59.161Z,75.33
2018-12-27T05:12:32.249Z,76.63
2018-12-27T05:28:05.775Z,77.48
2018-12-27T05:43:39.086Z,78.70
2018-12-27T05:59:12.210Z,79.22
2018-12-27T06:14:45.292Z,79.59
2018-12-27T06:30:19.720Z,79.58
2018-12-27T06:45:52.731Z,80.11
2018-12-27T07:01:25.559Z,80.94
2018-12-27T07:16:58.781Z,81.83
2018-12-27T07:32:32.005Z,83.16
2018-12-27T07:48:05.332Z,84.49
2018-12-27T08:03:38.429Z,85.85
2018-12-27T08:19:11.731Z,85.45
2018-12-27T08:34:45.092Z,84.10
2018-12-27T08:50:18.233Z,83.44
2018-12-27T09:05:51.216Z,82.37
2018-12-27T09:21:24.134Z,81.92
2018-12-27T09:36:57.116Z,81.36
2018-12-27T09:52:30.564Z,81.18
2018-12-27T10:08:03.637Z,81.21
2018-12-27T10:23:36.661Z,80.07
2018-12-27T10:39:10.229Z,79.65
2018-12-27T10:54:43.218Z,78.14
2018-12-27T11:10:16.059Z,77.37
2018-12-27T11:25:49.111Z,76.03
2018-12-27T11:41:22.593Z,78.03
2018-12-27T11:56:56.090Z,78.44
2018-12-27T12:12:28.964Z,78.62
2018-12-27T12:28:02.220Z,79.69
2018-12-27T12:43:34.943Z,78.67
2018-12-27T12:59:08.132Z,78.71
2018-12-27T13:14:41.404Z,77.17
2018-12-27T13:30:14.318Z,78.86
2018-12-27T13:45:47.593Z,78.46
2018-12-27T14:01:20.478Z,79.99
2018-12-27T14:16:53.972Z,81.90
2018-12-27T14:32:26.942Z,84.12
2018-12-27T14:47:59.692Z,86.12
2018-12-27T15:03:33.277Z,86.72
2018-12-27T15:19:07.270Z,86.58
2018-12-27T15:34:40.036Z,84.00
2018-12-27T15:50:13.008Z,83.06
2018-12-27T16:05:45.957Z,83.02
2018-12-27T16:21:20.162Z,82.72
2018-12-27T16:36:53.203Z,83.92
2018-12-27T16:52:26.754Z,83.68
2018-12-27T17:07:59.980Z,83.69
2018-12-27T17:23:32.963Z,82.88
2018-12-27T17:39:05.930Z,82.81
2018-12-27T17:54:38.961Z,83.07
2018-12-27T18:10:12.046Z,83.24
2018-12-27T18:25:44.870Z,82.36
2018-12-27T18:41:17.916Z,83.31
2018-12-27T18:56:50.815Z,82.92
2018-12-27T19:12:35.875Z,82.88
2018-12-27T19:28:09.171Z,82.81
2018-12-27T19:43:42.107Z,83.65
2018-12-27T19:59:15.182Z,83.98
2018-12-27T20:14:48.650Z,83.69
2018-12-27T20:30:22.445Z,83.55
2018-12-27T20:45:56.426Z,84.22
2018-12-27T21:01:29.403Z,84.79
2018-12-27T21:17:02.368Z,84.85
2018-12-27T21:32:35.642Z,84.78
2018-12-27T21:48:08.565Z,86.17
2018-12-27T22:03:42.181Z,87.10
2018-12-27T22:19:15.266Z,86.78
2018-12-27T22:34:47.940Z,87.66
2018-12-27T22:50:20.420Z,90.84
2018-12-27T23:05:53.513Z,90.43
2018-12-27T23:21:26.387Z,90.18
2018-12-27T23:36:59.691Z,90.32
2018-12-27T23:52:32.606Z,93.84
